createdAt,value
2017-12-24T00:00:31.871Z,8.74
2017-12-24T00:01:30.904Z,8.84
2017-12-24T00:02:31.439Z,8.69
2017-12-24T00:03:31.064Z,8.69
2017-12-24T00:04:31.090Z,8.71
2017-12-24T00:05:31.534Z,8.74
2017-12-24T00:06:31.049Z,8.78
2017-12-24T00:07:31.511Z,8.71
2017-12-24T00:08:31.175Z,8.71
2017-12-24T00:09:32.502Z,8.73
2017-12-24T00:10:31.424Z,8.76
2017-12-24T00:11:31.697Z,8.74
2017-12-24T00:12:30.830Z,8.67
2017-12-24T00:13:32.453Z,8.74
2017-12-24T00:14:31.170Z,8.71
2017-12-24T00:15:31.331Z,8.71
2017-12-24T00:16:30.760Z,8.76
2017-12-24T00:17:31.373Z,8.76
2017-12-24T00:18:31.265Z,8.73
2017-12-24T00:19:31.285Z,8.78
2017-12-24T00:20:31.102Z,8.76
2017-12-24T00:21:30.839Z,8.76
2017-12-24T00:22:30.864Z,8.84
2017-12-24T00:23:30.824Z,8.67
2017-12-24T00:24:30.826Z,8.73
2017-12-24T00:25:30.833Z,8.74
2017-12-24T00:26:31.067Z,8.76
2017-12-24T00:27:31.265Z,8.71
2017-12-24T00:28:31.068Z,8.66
2017-12-24T00:29:31.049Z,8.74
2017-12-24T00:30:30.794Z,8.7
2017-12-24T00:31:31.044Z,8.7
2017-12-24T00:32:30.802Z,8.74
2017-12-24T00:33:31.036Z,8.73
2017-12-24T00:34:31.033Z,8.74
2017-12-24T00:35:31.036Z,8.69
2017-12-24T00:36:30.781Z,8.81
2017-12-24T00:37:31.015Z,8.74
2017-12-24T00:38:31.013Z,8.69
2017-12-24T00:39:31.017Z,8.7
2017-12-24T00:40:30.763Z,8.73
2017-12-24T00:41:30.998Z,8.73
2017-12-24T00:42:30.997Z,8.63
2017-12-24T00:43:30.734Z,8.7
2017-12-24T00:44:30.997Z,8.64
2017-12-24T00:45:31.318Z,8.7
2017-12-24T00:46:30.990Z,8.71
2017-12-24T00:47:30.982Z,8.66
2017-12-24T00:48:31.014Z,8.64
2017-12-24T00:49:30.959Z,8.69
2017-12-24T00:50:30.715Z,8.69
2017-12-24T00:51:30.950Z,8.73
2017-12-24T00:52:30.698Z,8.7
2017-12-24T00:53:30.713Z,8.63
2017-12-24T00:54:30.932Z,8.66
2017-12-24T00:55:30.678Z,8.7
2017-12-24T00:56:30.671Z,8.73
2017-12-24T00:57:30.669Z,8.7
2017-12-24T00:58:30.661Z,8.73
2017-12-24T00:59:30.917Z,8.79
2017-12-24T01:00:30.920Z,8.71
2017-12-24T01:01:30.651Z,8.73
2017-12-24T01:02:30.911Z,8.64
2017-12-24T01:03:30.907Z,8.71
2017-12-24T01:04:30.646Z,8.63
2017-12-24T01:05:30.628Z,8.73
2017-12-24T01:06:30.883Z,8.67
2017-12-24T01:07:30.880Z,8.63
2017-12-24T01:08:30.621Z,8.69
2017-12-24T01:09:30.612Z,8.69
2017-12-24T01:10:30.615Z,8.71
2017-12-24T01:11:30.356Z,8.61
2017-12-24T01:12:30.595Z,8.58
2017-12-24T01:13:30.843Z,8.58
2017-12-24T01:14:30.843Z,8.58
2017-12-24T01:15:30.839Z,8.6
2017-12-24T01:16:30.838Z,8.58
2017-12-24T01:17:30.590Z,8.63
2017-12-24T01:18:30.574Z,8.56
2017-12-24T01:19:30.824Z,8.55
2017-12-24T01:20:30.824Z,8.55
2017-12-24T01:21:30.551Z,8.56
2017-12-24T01:22:30.801Z,8.58
2017-12-24T01:23:30.797Z,8.56
2017-12-24T01:24:30.800Z,8.55
2017-12-24T01:25:30.533Z,8.56
2017-12-24T01:26:30.788Z,8.52
2017-12-24T01:27:30.521Z,8.61
2017-12-24T01:28:30.778Z,8.56
2017-12-24T01:29:30.661Z,8.6
2017-12-24T01:30:30.760Z,8.63
2017-12-24T01:31:30.251Z,8.6
2017-12-24T01:32:30.497Z,8.6
2017-12-24T01:33:30.749Z,8.53
2017-12-24T01:34:30.742Z,8.56
2017-12-24T01:35:30.737Z,8.61
2017-12-24T01:36:30.476Z,8.64
2017-12-24T01:37:30.727Z,8.66
2017-12-24T01:38:30.719Z,8.73
2017-12-24T01:39:30.718Z,8.55
2017-12-24T01:40:30.462Z,8.63
2017-12-24T01:41:30.453Z,8.64
2017-12-24T01:42:30.450Z,8.58
2017-12-24T01:43:30.447Z,8.56
2017-12-24T01:44:31.934Z,8.63
2017-12-24T01:45:30.431Z,8.7
2017-12-24T01:46:30.685Z,8.64
2017-12-24T01:47:30.674Z,8.6
2017-12-24T01:48:30.420Z,8.58
2017-12-24T01:49:30.680Z,8.67
2017-12-24T01:50:30.942Z,8.6
2017-12-24T01:51:30.499Z,8.58
2017-12-24T01:52:30.299Z,8.6
2017-12-24T01:53:30.455Z,8.61
2017-12-24T01:54:30.667Z,8.63
2017-12-24T01:55:30.539Z,8.63
2017-12-24T01:56:30.802Z,8.6
2017-12-24T01:57:30.474Z,8.61
2017-12-24T01:58:30.511Z,8.6
2017-12-24T01:59:33.180Z,8.53
2017-12-24T02:00:30.797Z,8.6
2017-12-24T02:01:30.450Z,8.51
2017-12-24T02:02:30.762Z,8.55
2017-12-24T02:03:30.451Z,8.58
2017-12-24T02:04:30.531Z,8.53
2017-12-24T02:05:30.739Z,8.64
2017-12-24T02:06:30.493Z,8.6
2017-12-24T02:07:30.582Z,8.58
2017-12-24T02:08:30.579Z,8.58
2017-12-24T02:09:30.580Z,8.67
2017-12-24T02:10:30.577Z,8.67
2017-12-24T02:11:30.063Z,8.55
2017-12-24T02:12:30.562Z,8.61
2017-12-24T02:13:30.303Z,8.66
2017-12-24T02:14:30.558Z,8.55
2017-12-24T02:15:30.288Z,8.67
2017-12-24T02:16:30.278Z,8.67
2017-12-24T02:17:30.549Z,8.64
2017-12-24T02:18:30.528Z,8.55
2017-12-24T02:19:30.265Z,8.55
2017-12-24T02:20:30.279Z,8.58
2017-12-24T02:21:30.266Z,8.66
2017-12-24T02:22:30.255Z,8.66
2017-12-24T02:23:30.514Z,8.58
2017-12-24T02:24:30.500Z,8.63
2017-12-24T02:25:30.499Z,8.58
2017-12-24T02:26:30.483Z,8.64
2017-12-24T02:27:29.972Z,8.6
2017-12-24T02:28:30.487Z,8.58
2017-12-24T02:29:30.483Z,8.53
2017-12-24T02:30:33.668Z,8.67
2017-12-24T02:31:30.463Z,8.66
2017-12-24T02:32:30.221Z,8.6
2017-12-24T02:33:30.465Z,8.56
2017-12-24T02:34:30.449Z,8.58
2017-12-24T02:35:30.461Z,8.58
2017-12-24T02:36:30.446Z,8.64
2017-12-24T02:37:30.438Z,8.69
2017-12-24T02:38:30.491Z,8.51
2017-12-24T02:39:30.429Z,8.6
2017-12-24T02:40:30.424Z,8.55
2017-12-24T02:41:30.413Z,8.55
2017-12-24T02:42:30.406Z,8.56
2017-12-24T02:43:30.404Z,8.56
2017-12-24T02:44:29.896Z,8.56
2017-12-24T02:45:30.345Z,8.56
2017-12-24T02:46:30.397Z,8.55
2017-12-24T02:47:30.389Z,8.53
2017-12-24T02:48:30.131Z,8.53
2017-12-24T02:49:30.377Z,8.58
2017-12-24T02:50:30.127Z,8.58
2017-12-24T02:51:30.366Z,8.51
2017-12-24T02:52:29.857Z,8.51
2017-12-24T02:53:30.353Z,8.52
2017-12-24T02:54:30.348Z,8.58
2017-12-24T02:55:30.347Z,8.56
2017-12-24T02:56:30.343Z,8.6
2017-12-24T02:57:30.337Z,8.55
2017-12-24T02:58:30.077Z,8.56
2017-12-24T02:59:30.073Z,8.56
2017-12-24T03:00:29.819Z,8.52
2017-12-24T03:01:30.315Z,8.56
2017-12-24T03:02:30.316Z,8.55
2017-12-24T03:03:30.359Z,8.61
2017-12-24T03:04:30.119Z,8.64
2017-12-24T03:05:30.293Z,8.53
2017-12-24T03:06:30.295Z,8.66
2017-12-24T03:07:30.285Z,8.6
2017-12-24T03:08:30.280Z,8.56
2017-12-24T03:09:30.275Z,8.51
2017-12-24T03:10:30.015Z,8.55
2017-12-24T03:11:30.011Z,8.55
2017-12-24T03:12:30.009Z,8.49
2017-12-24T03:13:30.256Z,8.49
2017-12-24T03:14:30.260Z,8.52
2017-12-24T03:15:30.255Z,8.42
2017-12-24T03:16:30.251Z,8.52
2017-12-24T03:17:30.253Z,8.52
2017-12-24T03:18:30.254Z,8.51
2017-12-24T03:19:30.229Z,8.6
2017-12-24T03:20:29.989Z,8.51
2017-12-24T03:21:29.968Z,8.52
2017-12-24T03:22:30.219Z,8.51
2017-12-24T03:23:30.212Z,8.58
2017-12-24T03:24:30.197Z,8.51
2017-12-24T03:25:30.208Z,8.64
2017-12-24T03:26:29.940Z,8.53
2017-12-24T03:27:30.192Z,8.55
2017-12-24T03:28:30.196Z,8.55
2017-12-24T03:29:30.191Z,8.53
2017-12-24T03:30:30.178Z,8.56
2017-12-24T03:31:30.176Z,8.56
2017-12-24T03:32:30.164Z,8.52
2017-12-24T03:33:30.168Z,8.58
2017-12-24T03:34:29.900Z,8.48
2017-12-24T03:35:30.159Z,8.52
2017-12-24T03:36:30.189Z,8.38
2017-12-24T03:37:30.218Z,8.46
2017-12-24T03:38:30.132Z,8.52
2017-12-24T03:39:30.131Z,8.49
2017-12-24T03:40:30.131Z,8.49
2017-12-24T03:41:30.132Z,8.38
2017-12-24T03:42:29.863Z,8.51
2017-12-24T03:43:30.110Z,8.52
2017-12-24T03:44:30.102Z,8.53
2017-12-24T03:45:30.121Z,8.52
2017-12-24T03:46:30.100Z,8.38
2017-12-24T03:47:29.835Z,8.52
2017-12-24T03:48:30.088Z,8.51
2017-12-24T03:49:29.836Z,8.52
2017-12-24T03:50:30.074Z,8.52
2017-12-24T03:51:29.820Z,8.49
2017-12-24T03:52:30.065Z,8.38
2017-12-24T03:53:30.113Z,8.56
2017-12-24T03:54:29.808Z,8.52
2017-12-24T03:55:30.054Z,8.52
2017-12-24T03:56:30.056Z,8.52
2017-12-24T03:57:29.794Z,8.53
2017-12-24T03:58:29.787Z,8.63
2017-12-24T03:59:29.789Z,8.64
2017-12-24T04:00:30.028Z,8.51
2017-12-24T04:01:31.898Z,8.56
2017-12-24T04:02:30.027Z,8.52
2017-12-24T04:03:30.022Z,8.51
2017-12-24T04:04:30.020Z,8.45
2017-12-24T04:05:30.006Z,8.49
2017-12-24T04:06:30.006Z,8.45
2017-12-24T04:07:30.006Z,8.49
2017-12-24T04:08:29.994Z,8.52
2017-12-24T04:09:29.742Z,8.38
2017-12-24T04:10:30.036Z,8.38
2017-12-24T04:11:29.726Z,8.41
2017-12-24T04:12:29.719Z,8.42
2017-12-24T04:13:29.965Z,8.51
2017-12-24T04:14:29.962Z,8.38
2017-12-24T04:15:29.958Z,8.41
2017-12-24T04:16:29.957Z,8.42
2017-12-24T04:17:29.948Z,8.48
2017-12-24T04:18:29.947Z,8.49
2017-12-24T04:19:29.947Z,8.37
2017-12-24T04:20:29.946Z,8.45
2017-12-24T04:21:29.426Z,8.42
2017-12-24T04:22:29.926Z,8.42
2017-12-24T04:23:29.923Z,8.37
2017-12-24T04:24:29.661Z,8.34
2017-12-24T04:25:29.670Z,8.26
2017-12-24T04:26:29.913Z,8.34
2017-12-24T04:27:29.645Z,8.41
2017-12-24T04:28:29.897Z,8.31
2017-12-24T04:29:29.900Z,8.23
2017-12-24T04:30:29.634Z,8.23
2017-12-24T04:31:29.882Z,8.28
2017-12-24T04:32:29.878Z,8.33
2017-12-24T04:33:29.870Z,8.3
2017-12-24T04:34:29.868Z,8.3
2017-12-24T04:35:29.862Z,8.33
2017-12-24T04:36:29.858Z,8.26
2017-12-24T04:37:29.855Z,8.2
2017-12-24T04:38:29.593Z,8.23
2017-12-24T04:39:29.844Z,8.19
2017-12-24T04:40:29.594Z,8.16
2017-12-24T04:41:29.842Z,8.28
2017-12-24T04:42:29.835Z,8.27
2017-12-24T04:43:29.840Z,8.26
2017-12-24T04:44:29.835Z,8.18
2017-12-24T04:45:29.824Z,8.2
2017-12-24T04:46:29.810Z,8.26
2017-12-24T04:47:29.803Z,8.28
2017-12-24T04:48:29.803Z,8.26
2017-12-24T04:49:29.797Z,8.27
2017-12-24T04:50:29.789Z,8.31
2017-12-24T04:51:29.791Z,8.28
2017-12-24T04:52:29.777Z,8.2
2017-12-24T04:53:29.788Z,8.2
2017-12-24T04:54:29.765Z,8.2
2017-12-24T04:55:29.760Z,8.24
2017-12-24T04:56:29.506Z,8.3
2017-12-24T04:57:29.751Z,8.27
2017-12-24T04:58:29.742Z,8.31
2017-12-24T04:59:29.492Z,8.19
2017-12-24T05:00:29.734Z,8.2
2017-12-24T05:01:29.978Z,8.2
2017-12-24T05:02:29.733Z,8.15
2017-12-24T05:03:29.730Z,8.19
2017-12-24T05:04:29.727Z,8.24
2017-12-24T05:05:29.453Z,8.23
2017-12-24T05:06:29.714Z,8.26
2017-12-24T05:07:29.699Z,8.31
2017-12-24T05:08:29.695Z,8.33
2017-12-24T05:09:29.691Z,8.31
2017-12-24T05:10:29.442Z,8.3
2017-12-24T05:11:29.426Z,8.28
2017-12-24T05:12:29.418Z,8.3
2017-12-24T05:13:29.677Z,8.3
2017-12-24T05:14:29.661Z,8.28
2017-12-24T05:15:29.675Z,8.28
2017-12-24T05:16:29.651Z,8.31
2017-12-24T05:17:29.392Z,8.28
2017-12-24T05:18:29.650Z,8.33
2017-12-24T05:19:29.393Z,8.34
2017-12-24T05:20:29.646Z,8.33
2017-12-24T05:21:29.642Z,8.31
2017-12-24T05:22:29.627Z,8.26
2017-12-24T05:23:29.623Z,8.24
2017-12-24T05:24:29.362Z,8.28
2017-12-24T05:25:29.621Z,8.18
2017-12-24T05:26:29.382Z,8.19
2017-12-24T05:27:29.360Z,8.16
2017-12-24T05:28:29.609Z,8.16
2017-12-24T05:29:29.353Z,8.24
2017-12-24T05:30:29.584Z,8.19
2017-12-24T05:31:29.834Z,8.15
2017-12-24T05:32:29.318Z,8.12
2017-12-24T05:33:29.569Z,8.26
2017-12-24T05:34:29.328Z,8.18
2017-12-24T05:35:29.577Z,8.27
2017-12-24T05:36:29.566Z,8.15
2017-12-24T05:37:29.565Z,8.18
2017-12-24T05:38:29.550Z,8.15
2017-12-24T05:39:29.288Z,8.15
2017-12-24T05:40:29.555Z,8.13
2017-12-24T05:41:29.324Z,8.19
2017-12-24T05:42:29.024Z,8.16
2017-12-24T05:43:29.524Z,8.12
2017-12-24T05:44:29.269Z,8.19
2017-12-24T05:45:29.509Z,8.18
2017-12-24T05:46:29.500Z,8.18
2017-12-24T05:47:29.496Z,8.15
2017-12-24T05:48:29.490Z,8.18
2017-12-24T05:49:29.483Z,8.16
2017-12-24T05:50:29.524Z,8.18
2017-12-24T05:51:29.472Z,8.09
2017-12-24T05:52:29.469Z,8.05
2017-12-24T05:53:29.464Z,8.06
2017-12-24T05:54:29.466Z,8.09
2017-12-24T05:55:29.468Z,8.05
2017-12-24T05:56:29.464Z,8.06
2017-12-24T05:57:29.443Z,8.03
2017-12-24T05:58:29.443Z,8.1
2017-12-24T05:59:29.435Z,8.05
2017-12-24T06:00:29.429Z,8.03
2017-12-24T06:01:29.688Z,8.01
2017-12-24T06:02:29.413Z,8.06
2017-12-24T06:03:29.407Z,7.98
2017-12-24T06:04:29.155Z,8.09
2017-12-24T06:05:29.143Z,8.03
2017-12-24T06:06:29.412Z,8.1
2017-12-24T06:07:29.391Z,8.09
2017-12-24T06:08:29.132Z,8.09
2017-12-24T06:09:29.124Z,8.1
2017-12-24T06:10:29.374Z,8.03
2017-12-24T06:11:29.114Z,8.06
2017-12-24T06:12:29.365Z,8.03
2017-12-24T06:13:29.102Z,8.03
2017-12-24T06:14:29.351Z,8
2017-12-24T06:15:29.346Z,7.98
2017-12-24T06:16:30.146Z,7.97
2017-12-24T06:17:29.085Z,7.88
2017-12-24T06:18:29.079Z,7.93
2017-12-24T06:19:29.326Z,7.94
2017-12-24T06:20:29.315Z,7.94
2017-12-24T06:21:29.061Z,7.97
2017-12-24T06:22:29.309Z,8
2017-12-24T06:23:29.054Z,7.97
2017-12-24T06:24:29.297Z,8.03
2017-12-24T06:25:29.043Z,8
2017-12-24T06:26:29.307Z,7.91
2017-12-24T06:27:29.280Z,8.03
2017-12-24T06:28:29.021Z,8.01
2017-12-24T06:29:29.274Z,7.94
2017-12-24T06:30:29.020Z,7.94
2017-12-24T06:31:29.269Z,8.01
2017-12-24T06:32:29.251Z,8.01
2017-12-24T06:33:29.256Z,8.08
2017-12-24T06:34:29.304Z,8.12
2017-12-24T06:35:28.989Z,8.05
2017-12-24T06:36:28.980Z,8.06
2017-12-24T06:37:29.233Z,8.01
2017-12-24T06:38:29.227Z,8
2017-12-24T06:39:28.961Z,8.06
2017-12-24T06:40:29.222Z,8.06
2017-12-24T06:41:29.212Z,8.03
2017-12-24T06:42:28.962Z,8.03
2017-12-24T06:43:28.953Z,8.05
2017-12-24T06:44:28.691Z,8.09
2017-12-24T06:45:29.230Z,8.01
2017-12-24T06:46:28.923Z,7.97
2017-12-24T06:47:29.188Z,7.95
2017-12-24T06:48:29.177Z,7.94
2017-12-24T06:49:29.175Z,8.05
2017-12-24T06:50:29.179Z,8.13
2017-12-24T06:51:28.919Z,8.03
2017-12-24T06:52:29.168Z,8.09
2017-12-24T06:53:29.164Z,8.08
2017-12-24T06:54:29.156Z,8.09
2017-12-24T06:55:29.145Z,8.01
2017-12-24T06:56:29.143Z,8.01
2017-12-24T06:57:28.879Z,8.01
2017-12-24T06:58:29.129Z,8.03
2017-12-24T06:59:29.134Z,8
2017-12-24T07:00:29.124Z,7.95
2017-12-24T07:01:28.871Z,8.03
2017-12-24T07:02:33.910Z,7.9
2017-12-24T07:03:29.111Z,8.03
2017-12-24T07:04:29.121Z,7.97
2017-12-24T07:05:28.862Z,7.94
2017-12-24T07:06:28.838Z,7.97
2017-12-24T07:07:29.092Z,7.97
2017-12-24T07:08:29.066Z,7.94
2017-12-24T07:09:28.577Z,7.91
2017-12-24T07:10:29.080Z,8.01
2017-12-24T07:11:28.794Z,8.03
2017-12-24T07:12:29.051Z,7.98
2017-12-24T07:13:29.066Z,8
2017-12-24T07:14:28.788Z,8.05
2017-12-24T07:15:29.046Z,7.97
2017-12-24T07:16:29.016Z,8
2017-12-24T07:17:29.031Z,7.98
2017-12-24T07:18:29.010Z,8.06
2017-12-24T07:19:29.001Z,8.05
2017-12-24T07:20:28.999Z,8.06
2017-12-24T07:21:29.005Z,8.09
2017-12-24T07:22:28.734Z,8.05
2017-12-24T07:23:28.991Z,7.98
2017-12-24T07:24:28.738Z,7.93
2017-12-24T07:25:28.724Z,8
2017-12-24T07:26:28.998Z,8
2017-12-24T07:27:28.960Z,8.09
2017-12-24T07:28:28.728Z,8.01
2017-12-24T07:29:28.958Z,8.12
2017-12-24T07:30:28.953Z,8.05
2017-12-24T07:31:28.448Z,8.01
2017-12-24T07:32:28.939Z,8.01
2017-12-24T07:33:28.927Z,8.1
2017-12-24T07:34:28.921Z,7.98
2017-12-24T07:35:28.913Z,8
2017-12-24T07:36:28.913Z,8.06
2017-12-24T07:37:28.954Z,8.09
2017-12-24T07:38:28.915Z,8.05
2017-12-24T07:39:28.893Z,8.05
2017-12-24T07:40:28.915Z,8.06
2017-12-24T07:41:28.885Z,8.01
2017-12-24T07:42:28.887Z,8.06
2017-12-24T07:43:28.876Z,8.01
2017-12-24T07:44:28.918Z,8.06
2017-12-24T07:45:28.855Z,8.09
2017-12-24T07:46:28.859Z,8.01
2017-12-24T07:47:28.844Z,8.06
2017-12-24T07:48:28.838Z,8.03
2017-12-24T07:49:28.838Z,8.1
2017-12-24T07:50:28.579Z,8.05
2017-12-24T07:51:28.574Z,8.06
2017-12-24T07:52:28.826Z,8.08
2017-12-24T07:53:28.555Z,8.01
2017-12-24T07:54:28.304Z,8.09
2017-12-24T07:55:28.552Z,8.19
2017-12-24T07:56:28.549Z,8.18
2017-12-24T07:57:28.285Z,8.16
2017-12-24T07:58:28.809Z,8.13
2017-12-24T07:59:28.527Z,8.13
2017-12-24T08:00:28.788Z,8.09
2017-12-24T08:01:28.514Z,8.13
2017-12-24T08:02:28.771Z,8.15
2017-12-24T08:03:33.457Z,8.2
2017-12-24T08:04:28.506Z,8.19
2017-12-24T08:05:28.497Z,8.15
2017-12-24T08:06:28.744Z,8.16
2017-12-24T08:07:28.735Z,8.18
2017-12-24T08:08:28.738Z,8.23
2017-12-24T08:09:28.728Z,8.2
2017-12-24T08:10:28.720Z,8.27
2017-12-24T08:11:28.465Z,8.19
2017-12-24T08:12:28.720Z,8.12
2017-12-24T08:13:28.716Z,8.18
2017-12-24T08:14:28.450Z,8.18
2017-12-24T08:15:28.694Z,8.27
2017-12-24T08:16:28.685Z,8.13
2017-12-24T08:17:28.430Z,8.24
2017-12-24T08:18:28.675Z,8.16
2017-12-24T08:19:28.674Z,8.31
2017-12-24T08:20:28.423Z,8.24
2017-12-24T08:21:28.664Z,8.23
2017-12-24T08:22:28.665Z,8.3
2017-12-24T08:23:28.656Z,8.36
2017-12-24T08:24:28.396Z,8.36
2017-12-24T08:25:28.643Z,8.44
2017-12-24T08:26:28.638Z,8.36
2017-12-24T08:27:28.383Z,8.41
2017-12-24T08:28:28.378Z,8.41
2017-12-24T08:29:28.617Z,8.44
2017-12-24T08:30:28.651Z,8.42
2017-12-24T08:31:28.367Z,8.38
2017-12-24T08:32:28.617Z,8.42
2017-12-24T08:33:28.364Z,8.49
2017-12-24T08:34:29.402Z,8.46
2017-12-24T08:35:28.085Z,8.53
2017-12-24T08:37:28.586Z,8.58
2017-12-24T08:38:28.580Z,8.58
2017-12-24T08:39:28.576Z,8.52
2017-12-24T08:40:28.564Z,8.6
2017-12-24T08:41:28.562Z,8.56
2017-12-24T08:42:28.555Z,8.52
2017-12-24T08:43:28.554Z,8.66
2017-12-24T08:44:28.552Z,8.56
2017-12-24T08:45:28.544Z,8.48
2017-12-24T08:46:28.548Z,8.6
2017-12-24T08:47:28.281Z,8.55
2017-12-24T08:48:28.523Z,8.53
2017-12-24T08:49:28.521Z,8.53
2017-12-24T08:50:28.267Z,8.53
2017-12-24T08:51:28.267Z,8.52
2017-12-24T08:52:28.508Z,8.51
2017-12-24T08:53:28.528Z,8.56
2017-12-24T08:54:28.246Z,8.6
2017-12-24T08:55:28.505Z,8.55
2017-12-24T08:56:28.240Z,8.58
2017-12-24T08:57:28.229Z,8.64
2017-12-24T08:58:28.474Z,8.53
2017-12-24T08:59:28.475Z,8.52
2017-12-24T09:00:28.655Z,8.56
2017-12-24T09:01:28.465Z,8.49
2017-12-24T09:02:28.463Z,8.53
2017-12-24T09:03:28.473Z,8.6
2017-12-24T09:04:29.502Z,8.63
2017-12-24T09:05:28.460Z,8.64
2017-12-24T09:06:28.198Z,8.7
2017-12-24T09:07:28.193Z,8.76
2017-12-24T09:08:28.187Z,8.74
2017-12-24T09:09:28.179Z,8.84
2017-12-24T09:10:28.423Z,8.82
2017-12-24T09:11:28.424Z,8.87
2017-12-24T09:12:28.414Z,8.85
2017-12-24T09:13:28.407Z,8.88
2017-12-24T09:14:28.160Z,8.99
2017-12-24T09:15:28.417Z,8.99
2017-12-24T09:16:28.400Z,9.02
2017-12-24T09:17:28.392Z,9.02
2017-12-24T09:18:28.142Z,9.06
2017-12-24T09:19:28.130Z,9.1
2017-12-24T09:20:28.393Z,9.11
2017-12-24T09:21:28.137Z,9.13
2017-12-24T09:22:28.116Z,9.08
2017-12-24T09:23:28.372Z,9.06
2017-12-24T09:24:28.360Z,9.02
2017-12-24T09:25:28.370Z,8.99
2017-12-24T09:26:28.374Z,9.02
2017-12-24T09:27:28.094Z,9.02
2017-12-24T09:28:28.098Z,9.03
2017-12-24T09:29:28.343Z,8.99
2017-12-24T09:30:28.343Z,8.89
2017-12-24T09:31:28.334Z,8.92
2017-12-24T09:32:28.075Z,8.88
2017-12-24T09:33:28.397Z,8.82
2017-12-24T09:34:28.321Z,8.85
2017-12-24T09:35:28.130Z,8.88
2017-12-24T09:36:28.325Z,9.02
2017-12-24T09:37:27.808Z,9.04
2017-12-24T09:38:28.072Z,8.95
2017-12-24T09:39:28.305Z,9.11
2017-12-24T09:40:28.052Z,8.99
2017-12-24T09:41:28.307Z,9.03
2017-12-24T09:42:28.297Z,9.02
2017-12-24T09:43:28.292Z,9.1
2017-12-24T09:44:28.283Z,9
2017-12-24T09:45:28.272Z,9
2017-12-24T09:46:28.016Z,9.08
2017-12-24T09:47:28.015Z,9.02
2017-12-24T09:48:28.012Z,9.02
2017-12-24T09:49:28.003Z,9.11
2017-12-24T09:50:28.267Z,8.97
2017-12-24T09:51:28.247Z,9.04
2017-12-24T09:52:27.994Z,9.08
2017-12-24T09:53:28.239Z,9.1
2017-12-24T09:54:28.252Z,9
2017-12-24T09:55:27.987Z,9.03
2017-12-24T09:56:28.230Z,8.94
2017-12-24T09:57:28.227Z,9.03
2017-12-24T09:58:28.225Z,9.1
2017-12-24T09:59:28.217Z,9.03
2017-12-24T10:00:28.219Z,9.11
2017-12-24T10:01:27.959Z,9.03
2017-12-24T10:02:27.958Z,9.11
2017-12-24T10:03:28.203Z,9.1
2017-12-24T10:04:27.954Z,9.1
2017-12-24T10:05:28.202Z,9.25
2017-12-24T10:06:28.030Z,9.19
2017-12-24T10:07:28.183Z,9.14
2017-12-24T10:08:27.940Z,9.23
2017-12-24T10:09:28.193Z,9.21
2017-12-24T10:10:28.177Z,9.19
2017-12-24T10:11:27.929Z,9.19
2017-12-24T10:12:28.171Z,9.19
2017-12-24T10:13:27.913Z,9.19
2017-12-24T10:14:28.159Z,9.14
2017-12-24T10:15:27.912Z,9.34
2017-12-24T10:16:27.907Z,9.29
2017-12-24T10:17:28.157Z,9.37
2017-12-24T10:18:27.891Z,9.44
2017-12-24T10:19:27.907Z,9.48
2017-12-24T10:20:27.891Z,9.48
2017-12-24T10:21:28.131Z,9.43
2017-12-24T10:22:27.875Z,9.43
2017-12-24T10:52:55.815Z,9.86
2017-12-24T10:53:55.549Z,9.86
2017-12-24T10:54:55.788Z,9.86
2017-12-24T10:55:55.527Z,9.76
2017-12-24T10:56:55.776Z,9.77
2017-12-24T10:57:55.812Z,9.77
2017-12-24T10:58:55.759Z,9.76
2017-12-24T10:59:55.513Z,9.72
2017-12-24T11:00:55.742Z,9.65
2017-12-24T11:01:55.858Z,9.74
2017-12-24T11:02:55.724Z,9.68
2017-12-24T11:03:55.224Z,9.8
2017-12-24T11:04:55.719Z,9.72
2017-12-24T11:05:55.205Z,9.76
2017-12-24T11:06:55.718Z,9.77
2017-12-24T11:07:57.456Z,9.77
2017-12-24T11:08:55.212Z,9.76
2017-12-24T11:09:55.459Z,9.73
2017-12-24T11:10:55.688Z,9.83
2017-12-24T11:11:55.686Z,9.8
2017-12-24T11:12:55.431Z,9.86
2017-12-24T11:13:55.676Z,9.82
2017-12-24T11:14:55.418Z,9.82
2017-12-24T11:15:55.685Z,9.89
2017-12-24T11:16:55.666Z,9.84
2017-12-24T11:17:55.420Z,9.91
2017-12-24T11:18:55.664Z,9.92
2017-12-24T11:19:55.397Z,9.89
2017-12-24T11:20:55.663Z,9.83
2017-12-24T11:21:55.406Z,9.8
2017-12-24T11:22:55.650Z,9.76
2017-12-24T11:23:55.634Z,9.79
2017-12-24T11:24:55.379Z,9.79
2017-12-24T11:25:55.375Z,9.74
2017-12-24T11:26:55.627Z,9.79
2017-12-24T11:27:55.371Z,9.76
2017-12-24T11:28:55.367Z,9.84
2017-12-24T11:29:55.364Z,9.89
2017-12-24T11:30:55.622Z,9.87
2017-12-24T11:31:55.361Z,9.91
2017-12-24T11:32:55.359Z,9.89
2017-12-24T11:33:55.613Z,9.91
2017-12-24T11:34:55.602Z,9.83
2017-12-24T11:35:55.343Z,9.79
2017-12-24T11:36:55.352Z,9.76
2017-12-24T11:37:58.545Z,9.76
2017-12-24T11:38:55.344Z,9.74
2017-12-24T11:39:55.604Z,9.74
2017-12-24T11:40:55.577Z,9.72
2017-12-24T11:41:55.577Z,9.77
2017-12-24T11:42:55.584Z,9.84
2017-12-24T11:43:55.568Z,9.79
2017-12-24T11:44:55.570Z,9.83
2017-12-24T11:45:55.565Z,9.91
2017-12-24T11:46:55.360Z,9.91
2017-12-24T11:47:55.310Z,9.83
2017-12-24T11:48:55.568Z,9.86
2017-12-24T11:49:55.564Z,9.84
2017-12-24T11:50:55.628Z,9.91
2017-12-24T11:51:55.542Z,9.89
2017-12-24T11:52:55.290Z,9.84
2017-12-24T11:53:55.537Z,9.87
2017-12-24T11:54:55.597Z,9.86
2017-12-24T11:55:55.536Z,9.8
2017-12-24T11:56:55.537Z,9.82
2017-12-24T11:57:55.536Z,9.86
2017-12-24T11:58:55.524Z,9.91
2017-12-24T11:59:55.275Z,9.94
2017-12-24T12:00:55.510Z,9.92
2017-12-24T12:01:55.521Z,10.02
2017-12-24T12:02:55.522Z,9.97
2017-12-24T12:03:55.514Z,10.01
2017-12-24T12:04:55.531Z,10.07
2017-12-24T12:05:55.514Z,10.07
2017-12-24T12:06:55.511Z,9.97
2017-12-24T12:07:55.259Z,9.86
2017-12-24T12:08:58.990Z,9.83
2017-12-24T12:09:55.255Z,9.79
2017-12-24T12:10:55.497Z,9.76
2017-12-24T12:11:55.487Z,9.76
2017-12-24T12:12:55.487Z,9.83
2017-12-24T12:13:55.492Z,9.89
2017-12-24T12:14:55.221Z,9.89
2017-12-24T12:15:55.488Z,9.89
2017-12-24T12:16:55.213Z,9.94
2017-12-24T12:17:55.471Z,9.91
2017-12-24T12:18:55.462Z,9.76
2017-12-24T12:19:55.467Z,9.74
2017-12-24T12:20:55.211Z,9.68
2017-12-24T12:21:55.189Z,9.55
2017-12-24T12:22:55.440Z,9.58
2017-12-24T12:23:55.206Z,9.51
2017-12-24T12:24:55.184Z,9.54
2017-12-24T12:25:55.182Z,9.54
2017-12-24T12:26:55.434Z,9.56
2017-12-24T12:27:55.435Z,9.61
2017-12-24T12:28:55.187Z,9.64
2017-12-24T12:29:55.430Z,9.72
2017-12-24T12:30:55.424Z,9.76
2017-12-24T12:31:55.164Z,9.76
2017-12-24T12:32:55.415Z,9.86
2017-12-24T12:33:55.482Z,9.8
2017-12-24T12:34:55.165Z,9.84
2017-12-24T12:35:55.399Z,9.87
2017-12-24T12:36:55.404Z,9.87
2017-12-24T12:37:55.140Z,9.86
2017-12-24T12:38:55.639Z,9.86
2017-12-24T12:39:55.391Z,9.92
2017-12-24T12:40:55.388Z,9.91
2017-12-24T12:41:55.380Z,9.92
2017-12-24T12:42:54.871Z,9.89
2017-12-24T12:43:55.398Z,9.94
2017-12-24T12:44:55.366Z,9.87
2017-12-24T12:45:55.118Z,9.8
2017-12-24T12:46:55.360Z,9.86
2017-12-24T12:47:55.118Z,9.87
2017-12-24T12:48:55.356Z,9.82
2017-12-24T12:49:55.352Z,9.89
2017-12-24T12:50:55.364Z,9.82
2017-12-24T12:51:55.095Z,9.82
2017-12-24T12:52:55.346Z,9.82
2017-12-24T12:53:55.087Z,9.77
2017-12-24T12:54:54.832Z,9.83
2017-12-24T12:55:55.329Z,9.77
2017-12-24T12:56:55.326Z,9.86
2017-12-24T12:57:55.344Z,9.84
2017-12-24T12:58:55.069Z,9.92
2017-12-24T12:59:55.070Z,9.94
2017-12-24T13:00:55.065Z,9.92
2017-12-24T13:01:55.318Z,9.91
2017-12-24T13:02:55.315Z,9.94
2017-12-24T13:03:55.314Z,9.92
2017-12-24T13:04:55.301Z,9.92
2017-12-24T13:05:55.056Z,9.98
2017-12-24T13:06:55.304Z,9.97
2017-12-24T13:07:55.058Z,9.89
2017-12-24T13:08:55.298Z,9.89
2017-12-24T13:09:55.293Z,9.83
2017-12-24T13:10:55.027Z,9.77
2017-12-24T13:11:55.039Z,9.76
2017-12-24T13:12:55.025Z,9.73
2017-12-24T13:13:55.274Z,9.65
2017-12-24T13:14:55.272Z,9.54
2017-12-24T13:15:55.019Z,9.51
2017-12-24T13:16:55.011Z,9.39
2017-12-24T13:17:55.261Z,9.32
2017-12-24T13:18:55.013Z,9.29
2017-12-24T13:19:55.254Z,9.31
2017-12-24T13:20:55.249Z,9.25
2017-12-24T13:21:55.248Z,9.18
2017-12-24T13:22:54.980Z,9.25
2017-12-24T13:23:55.246Z,9.29
2017-12-24T13:24:54.982Z,9.29
2017-12-24T13:25:55.221Z,9.41
2017-12-24T13:26:55.224Z,9.31
2017-12-24T13:27:55.219Z,9.32
2017-12-24T13:28:55.220Z,9.16
2017-12-24T13:29:54.955Z,9.21
2017-12-24T13:30:54.960Z,9.08
2017-12-24T13:31:54.943Z,9.06
2017-12-24T13:32:55.203Z,9.13
2017-12-24T13:33:54.932Z,9.11
2017-12-24T13:34:55.185Z,9.03
2017-12-24T13:35:54.923Z,8.99
2017-12-24T13:36:54.922Z,9.03
2017-12-24T13:37:55.176Z,9.04
2017-12-24T13:38:55.163Z,9.11
2017-12-24T13:39:55.166Z,9.06
2017-12-24T13:40:54.904Z,9
2017-12-24T13:41:54.662Z,9.02
2017-12-24T13:42:55.151Z,8.87
2017-12-24T13:43:54.887Z,8.85
2017-12-24T13:44:54.891Z,8.71
2017-12-24T13:45:55.141Z,8.71
2017-12-24T13:46:55.124Z,8.66
2017-12-24T13:47:55.115Z,8.73
2017-12-24T13:48:55.118Z,8.64
2017-12-24T13:49:54.854Z,8.67
2017-12-24T13:50:55.098Z,8.69
2017-12-24T13:51:54.856Z,8.67